createdAt,value
2016-02-16T00:00:29.371Z,0
2016-02-16T00:01:29.436Z,0
2016-02-16T00:02:29.345Z,0
2016-02-16T00:03:29.536Z,0
2016-02-16T00:04:29.570Z,0
2016-02-16T00:05:29.650Z,0
2016-02-16T00:06:29.685Z,0
2016-02-16T00:07:29.733Z,0
2016-02-16T00:08:29.783Z,0
2016-02-16T00:09:29.833Z,0
2016-02-16T00:10:29.883Z,0
2016-02-16T00:11:29.948Z,0
2016-02-16T00:12:29.982Z,0
2016-02-16T00:13:30.062Z,0
2016-02-16T00:14:30.096Z,0
2016-02-16T00:15:30.146Z,0
2016-02-16T00:16:30.196Z,0
2016-02-16T00:17:30.260Z,0
2016-02-16T00:18:30.279Z,0
2016-02-16T00:19:30.375Z,0
2016-02-16T00:20:30.488Z,0
2016-02-16T00:21:30.459Z,0
2016-02-16T00:22:30.493Z,0
2016-02-16T00:23:30.559Z,0
2016-02-16T00:24:30.608Z,0
2016-02-16T00:25:30.673Z,0
2016-02-16T00:26:30.707Z,0
2016-02-16T00:27:30.772Z,0
2016-02-16T00:28:30.806Z,0
2016-02-16T00:29:30.872Z,0
2016-02-16T00:30:30.920Z,0
2016-02-16T00:31:30.970Z,0
2016-02-16T00:32:31.004Z,0
2016-02-16T00:33:31.070Z,0
2016-02-16T00:34:31.119Z,0
2016-02-16T00:35:31.184Z,0
2016-02-16T00:36:31.202Z,0
2016-02-16T00:37:31.299Z,0
2016-02-16T00:38:31.317Z,0
2016-02-16T00:39:31.367Z,0
2016-02-16T00:40:31.432Z,0
2016-02-16T00:41:31.482Z,0
2016-02-16T00:42:31.532Z,0
2016-02-16T00:43:31.597Z,0
2016-02-16T00:44:31.662Z,0
2016-02-16T00:45:30.930Z,0
2016-02-16T00:46:31.760Z,0
2016-02-16T00:47:31.795Z,0
2016-02-16T00:48:31.829Z,0
2016-02-16T00:49:31.878Z,0
2016-02-16T00:50:31.943Z,0
2016-02-16T00:51:31.993Z,0
2016-02-16T00:52:32.058Z,0
2016-02-16T00:53:32.092Z,0
2016-02-16T00:54:32.157Z,0
2016-02-16T00:55:32.191Z,0
2016-02-16T00:56:32.257Z,0
2016-02-16T00:57:32.306Z,0
2016-02-16T00:58:32.355Z,0
2016-02-16T00:59:32.389Z,0
2016-02-16T01:00:32.455Z,0
2016-02-16T01:01:32.504Z,0
2016-02-16T01:02:32.570Z,0
2016-02-16T01:03:32.619Z,0
2016-02-16T01:04:32.184Z,0
2016-02-16T01:05:32.702Z,0
2016-02-16T01:06:32.799Z,0
2016-02-16T01:07:32.833Z,0
2016-02-16T01:08:32.883Z,0
2016-02-16T01:09:32.932Z,0
2016-02-16T01:10:33.027Z,0
2016-02-16T01:11:33.015Z,0
2016-02-16T01:12:33.096Z,0
2016-02-16T01:13:33.130Z,0
2016-02-16T01:14:33.180Z,0
2016-02-16T01:15:33.229Z,0
2016-02-16T01:16:33.279Z,0
2016-02-16T01:17:33.328Z,0
2016-02-16T01:18:33.378Z,0
2016-02-16T01:19:33.428Z,0
2016-02-16T01:20:33.493Z,0
2016-02-16T01:21:33.557Z,0
2016-02-16T01:22:33.592Z,0
2016-02-16T01:23:33.656Z,0
2016-02-16T01:24:33.691Z,0
2016-02-16T01:25:33.741Z,0
2016-02-16T01:26:33.806Z,0
2016-02-16T01:27:33.856Z,0
2016-02-16T01:28:33.905Z,0
2016-02-16T01:29:33.970Z,0
2016-02-16T01:30:34.004Z,0
2016-02-16T01:31:34.054Z,0
2016-02-16T01:32:34.119Z,0
2016-02-16T01:33:34.153Z,0
2016-02-16T01:34:34.217Z,0
2016-02-16T01:35:34.267Z,0
2016-02-16T01:36:34.301Z,0
2016-02-16T01:37:34.367Z,0
2016-02-16T01:38:34.432Z,0
2016-02-16T01:39:34.466Z,0
2016-02-16T01:40:34.499Z,0
2016-02-16T01:41:34.596Z,0
2016-02-16T01:42:34.614Z,0
2016-02-16T01:43:34.680Z,0
2016-02-16T01:44:34.714Z,0
2016-02-16T01:45:34.779Z,0
2016-02-16T01:46:34.828Z,0
2016-02-16T01:47:34.894Z,0
2016-02-16T01:48:34.927Z,0
2016-02-16T01:49:34.993Z,0
2016-02-16T01:50:35.027Z,0
2016-02-16T01:51:35.092Z,0
2016-02-16T01:52:35.141Z,0
2016-02-16T01:53:35.207Z,0
2016-02-16T01:54:35.225Z,0
2016-02-16T01:55:35.306Z,0
2016-02-16T01:56:35.340Z,0
2016-02-16T01:57:35.404Z,0
2016-02-16T01:58:35.439Z,0
2016-02-16T01:59:35.503Z,0
2016-02-16T02:00:35.553Z,0
2016-02-16T02:01:35.619Z,0
2016-02-16T02:02:35.653Z,0
2016-02-16T02:03:35.717Z,0
2016-02-16T02:04:35.753Z,0
2016-02-16T02:05:35.818Z,0
2016-02-16T02:06:35.868Z,0
2016-02-16T02:07:35.917Z,0
2016-02-16T02:08:35.982Z,0
2016-02-16T02:09:36.031Z,0
2016-02-16T02:10:36.066Z,0
2016-02-16T02:11:36.115Z,0
2016-02-16T02:12:36.181Z,0
2016-02-16T02:13:36.214Z,0
2016-02-16T02:14:36.280Z,0
2016-02-16T02:15:36.329Z,0
2016-02-16T02:16:36.378Z,0
2016-02-16T02:17:36.428Z,0
2016-02-16T02:18:36.478Z,0
2016-02-16T02:19:36.527Z,0
2016-02-16T02:20:36.592Z,0
2016-02-16T02:21:36.627Z,0
2016-02-16T02:22:36.691Z,0
2016-02-16T02:23:36.742Z,0
2016-02-16T02:24:36.791Z,0
2016-02-16T02:25:36.855Z,0
2016-02-16T02:26:36.874Z,0
2016-02-16T02:27:36.955Z,0
2016-02-16T02:28:36.833Z,0
2016-02-16T02:29:37.071Z,0
2016-02-16T02:30:37.119Z,0
2016-02-16T02:31:37.168Z,0
2016-02-16T02:32:37.187Z,0
2016-02-16T02:33:37.253Z,0
2016-02-16T02:34:37.302Z,0
2016-02-16T02:35:37.352Z,0
2016-02-16T02:36:37.432Z,0
2016-02-16T02:37:37.451Z,0
2016-02-16T02:38:37.547Z,0
2016-02-16T02:39:37.566Z,0
2016-02-16T02:40:37.646Z,0
2016-02-16T02:41:37.665Z,0
2016-02-16T02:42:37.730Z,0
2016-02-16T02:43:37.764Z,0
2016-02-16T02:44:37.656Z,0
2016-02-16T02:45:37.894Z,0
2016-02-16T02:46:37.929Z,0
2016-02-16T02:47:37.978Z,0
2016-02-16T02:48:38.011Z,0
2016-02-16T02:49:38.077Z,0
2016-02-16T02:50:37.969Z,0
2016-02-16T02:51:38.208Z,0
2016-02-16T02:52:38.226Z,0
2016-02-16T02:53:38.306Z,0
2016-02-16T02:54:38.340Z,0
2016-02-16T02:55:38.405Z,0
2016-02-16T02:56:38.439Z,0
2016-02-16T02:57:38.505Z,0
2016-02-16T02:58:38.539Z,0
2016-02-16T02:59:38.588Z,0
2016-02-16T03:00:38.654Z,0
2016-02-16T03:01:38.702Z,0
2016-02-16T03:02:38.752Z,0
2016-02-16T03:03:38.802Z,0
2016-02-16T03:04:38.889Z,0
2016-02-16T03:05:38.922Z,0
2016-02-16T03:06:38.957Z,0
2016-02-16T03:07:39.006Z,0
2016-02-16T03:08:39.072Z,0
2016-02-16T03:09:39.105Z,0
2016-02-16T03:10:39.186Z,0
2016-02-16T03:11:39.204Z,0
2016-02-16T03:12:39.270Z,0
2016-02-16T03:13:39.319Z,0
2016-02-16T03:14:39.369Z,0
2016-02-16T03:15:39.434Z,0
2016-02-16T03:16:39.484Z,0
2016-02-16T03:17:39.517Z,0
2016-02-16T03:18:39.582Z,0
2016-02-16T03:19:39.648Z,0
2016-02-16T03:20:39.682Z,0
2016-02-16T03:21:39.716Z,0
2016-02-16T03:22:39.593Z,0
2016-02-16T03:23:39.814Z,0
2016-02-16T03:24:39.864Z,0
2016-02-16T03:25:39.914Z,0
2016-02-16T03:26:39.964Z,0
2016-02-16T03:27:40.014Z,0
2016-02-16T03:28:40.063Z,0
2016-02-16T03:29:40.127Z,0
2016-02-16T03:30:40.177Z,0
2016-02-16T03:31:40.227Z,0
2016-02-16T03:32:40.277Z,0
2016-02-16T03:33:40.311Z,0
2016-02-16T03:34:40.360Z,0
2016-02-16T03:35:40.425Z,0
2016-02-16T03:36:40.459Z,0
2016-02-16T03:37:40.525Z,0
2016-02-16T03:38:40.574Z,0
2016-02-16T03:39:40.624Z,0
2016-02-16T03:40:40.688Z,0
2016-02-16T03:41:40.723Z,0
2016-02-16T03:42:40.787Z,0
2016-02-16T03:43:40.837Z,0
2016-02-16T03:44:40.887Z,0
2016-02-16T03:45:40.937Z,0
2016-02-16T03:46:40.986Z,0
2016-02-16T03:47:41.035Z,0
2016-02-16T03:48:41.084Z,0
2016-02-16T03:49:41.151Z,0
2016-02-16T03:50:41.201Z,0
2016-02-16T03:51:41.265Z,0
2016-02-16T03:52:41.298Z,0
2016-02-16T03:53:41.348Z,0
2016-02-16T03:54:41.414Z,0
2016-02-16T03:55:41.448Z,0
2016-02-16T03:56:41.498Z,0
2016-02-16T03:57:41.562Z,0
2016-02-16T03:58:41.611Z,0
2016-02-16T03:59:41.661Z,0
2016-02-16T04:00:41.727Z,0
2016-02-16T04:01:41.777Z,0
2016-02-16T04:02:41.811Z,0
2016-02-16T04:03:41.907Z,0
2016-02-16T04:04:41.925Z,0
2016-02-16T04:05:41.974Z,0
2016-02-16T04:06:42.008Z,0
2016-02-16T04:07:42.074Z,0
2016-02-16T04:08:42.123Z,0
2016-02-16T04:09:42.173Z,0
2016-02-16T04:10:42.238Z,0
2016-02-16T04:11:42.272Z,0
2016-02-16T04:12:42.322Z,0
2016-02-16T04:13:42.387Z,0
2016-02-16T04:14:42.436Z,0
2016-02-16T04:15:42.486Z,0
2016-02-16T04:16:42.379Z,0
2016-02-16T04:17:42.570Z,0
2016-02-16T04:18:42.651Z,0
2016-02-16T04:19:42.684Z,0
2016-02-16T04:20:42.734Z,0
2016-02-16T04:21:42.799Z,0
2016-02-16T04:22:42.849Z,0
2016-02-16T04:23:42.882Z,0
2016-02-16T04:24:42.963Z,0
2016-02-16T04:25:43.013Z,0
2016-02-16T04:26:43.047Z,0
2016-02-16T04:27:43.112Z,0
2016-02-16T04:28:43.162Z,0
2016-02-16T04:29:43.211Z,0
2016-02-16T04:30:43.258Z,0
2016-02-16T04:31:43.311Z,0
2016-02-16T04:32:43.347Z,0
2016-02-16T04:33:43.383Z,0
2016-02-16T04:34:43.420Z,0
2016-02-16T04:35:43.458Z,0
2016-02-16T04:36:43.503Z,0
2016-02-16T04:37:43.548Z,0
2016-02-16T04:38:43.591Z,0
2016-02-16T04:39:43.652Z,0
2016-02-16T04:40:43.682Z,0
2016-02-16T04:41:42.996Z,0
2016-02-16T04:42:43.778Z,0
2016-02-16T04:43:43.841Z,0
2016-02-16T04:44:43.888Z,0
2016-02-16T04:45:43.923Z,0
2016-02-16T04:46:43.970Z,0
2016-02-16T04:47:44.035Z,0
2016-02-16T04:48:44.084Z,0
2016-02-16T04:49:44.133Z,0
2016-02-16T04:50:44.213Z,0
2016-02-16T04:51:44.247Z,0
2016-02-16T04:52:44.297Z,0
2016-02-16T04:53:44.361Z,0
2016-02-16T04:54:44.426Z,0
2016-02-16T04:55:44.460Z,0
2016-02-16T04:56:44.494Z,0
2016-02-16T04:57:44.559Z,0
2016-02-16T04:58:44.624Z,0
2016-02-16T04:59:44.659Z,0
2016-02-16T05:00:44.709Z,0
2016-02-16T05:01:44.773Z,0
2016-02-16T05:02:44.823Z,0
2016-02-16T05:03:44.873Z,0
2016-02-16T05:04:44.923Z,0
2016-02-16T05:05:44.973Z,0
2016-02-16T05:06:45.021Z,0
2016-02-16T05:07:45.070Z,0
2016-02-16T05:08:45.121Z,0
2016-02-16T05:09:45.186Z,0
2016-02-16T05:10:45.236Z,0
2016-02-16T05:11:45.128Z,0
2016-02-16T05:12:45.350Z,0
2016-02-16T05:13:45.384Z,0
2016-02-16T05:14:45.434Z,0
2016-02-16T05:15:45.483Z,0
2016-02-16T05:16:45.533Z,0
2016-02-16T05:17:45.583Z,0
2016-02-16T05:18:45.632Z,0
2016-02-16T05:19:45.681Z,0
2016-02-16T05:20:45.746Z,0
2016-02-16T05:21:45.796Z,0
2016-02-16T05:22:45.861Z,0
2016-02-16T05:23:45.896Z,0
2016-02-16T05:24:45.977Z,0
2016-02-16T05:25:46.010Z,0
2016-02-16T05:26:46.075Z,0
2016-02-16T05:27:46.110Z,0
2016-02-16T05:28:46.159Z,0
2016-02-16T05:29:45.458Z,0
2016-02-16T05:30:46.274Z,0
2016-02-16T05:31:46.324Z,0
2016-02-16T05:32:46.388Z,0
2016-02-16T05:33:46.406Z,0
2016-02-16T05:34:46.471Z,0
2016-02-16T05:35:46.521Z,0
2016-02-16T05:36:46.571Z,0
2016-02-16T05:37:46.621Z,0
2016-02-16T05:38:46.701Z,0
2016-02-16T05:39:46.719Z,0
2016-02-16T05:40:46.770Z,0
2016-02-16T05:41:46.834Z,0
2016-02-16T05:42:46.867Z,0
2016-02-16T05:43:46.933Z,0
2016-02-16T05:44:46.842Z,0
2016-02-16T05:45:47.048Z,0
2016-02-16T05:46:47.098Z,0
2016-02-16T05:47:47.132Z,0
2016-02-16T05:48:47.213Z,0
2016-02-16T05:49:47.246Z,0
2016-02-16T05:50:47.311Z,0
2016-02-16T05:51:47.346Z,0
2016-02-16T05:52:47.395Z,0
2016-02-16T05:53:47.444Z,0
2016-02-16T05:54:47.494Z,0
2016-02-16T05:55:47.544Z,0
2016-02-16T05:56:47.593Z,0
2016-02-16T05:57:47.659Z,0
2016-02-16T05:58:47.708Z,0
2016-02-16T05:59:47.773Z,0
2016-02-16T06:00:47.808Z,0
2016-02-16T06:01:47.857Z,0
2016-02-16T06:02:47.938Z,0
2016-02-16T06:03:47.956Z,0
2016-02-16T06:04:48.099Z,0
2016-02-16T06:05:48.072Z,0
2016-02-16T06:06:48.136Z,0
2016-02-16T06:07:48.186Z,0
2016-02-16T06:08:48.252Z,0
2016-02-16T06:09:48.269Z,0
2016-02-16T06:10:48.335Z,0
2016-02-16T06:11:48.369Z,0
2016-02-16T06:12:48.434Z,0
2016-02-16T06:13:48.484Z,0
2016-02-16T06:14:48.533Z,0
2016-02-16T06:15:48.568Z,0
2016-02-16T06:16:48.632Z,0
2016-02-16T06:17:48.713Z,0
2016-02-16T06:18:48.732Z,0
2016-02-16T06:19:48.796Z,0
2016-02-16T06:20:48.846Z,0
2016-02-16T06:21:48.895Z,0
2016-02-16T06:22:48.946Z,0
2016-02-16T06:23:48.995Z,0
2016-02-16T06:24:49.045Z,0
2016-02-16T06:25:49.109Z,0
2016-02-16T06:26:49.159Z,0
2016-02-16T06:27:49.240Z,0
2016-02-16T06:28:49.258Z,4
2016-02-16T06:29:49.308Z,4
2016-02-16T06:30:49.201Z,0
2016-02-16T06:31:49.422Z,0
2016-02-16T06:32:49.473Z,0
2016-02-16T06:33:49.506Z,4
2016-02-16T06:34:49.587Z,4
2016-02-16T06:35:49.622Z,4
2016-02-16T06:36:49.687Z,0
2016-02-16T06:37:49.719Z,4
2016-02-16T06:38:49.802Z,4
2016-02-16T06:39:49.819Z,4
2016-02-16T06:40:49.869Z,4
2016-02-16T06:41:49.918Z,4
2016-02-16T06:42:49.843Z,4
2016-02-16T06:43:50.018Z,8
2016-02-16T06:44:50.082Z,8
2016-02-16T06:45:50.132Z,4
2016-02-16T06:46:50.198Z,8
2016-02-16T06:47:50.215Z,8
2016-02-16T06:48:50.297Z,8
2016-02-16T06:49:50.331Z,12
2016-02-16T06:50:50.396Z,8
2016-02-16T06:51:50.429Z,12
2016-02-16T06:52:50.510Z,12
2016-02-16T06:53:50.545Z,12
2016-02-16T06:54:50.610Z,12
2016-02-16T06:55:50.644Z,16
2016-02-16T06:56:50.709Z,16
2016-02-16T06:57:50.759Z,16
2016-02-16T06:58:50.808Z,16
2016-02-16T06:59:50.858Z,20
2016-02-16T07:00:50.923Z,20
2016-02-16T07:01:50.941Z,24
2016-02-16T07:02:51.037Z,20
2016-02-16T07:03:51.072Z,24
2016-02-16T07:04:51.136Z,24
2016-02-16T07:05:51.170Z,24
2016-02-16T07:06:51.220Z,28
2016-02-16T07:07:51.269Z,28
2016-02-16T07:08:51.335Z,28
2016-02-16T07:09:51.369Z,32
2016-02-16T07:10:51.450Z,32
2016-02-16T07:11:51.468Z,36
2016-02-16T07:12:51.518Z,36
2016-02-16T07:13:51.583Z,36
2016-02-16T07:14:51.632Z,40
2016-02-16T07:15:51.697Z,44
2016-02-16T07:16:51.747Z,40
2016-02-16T07:17:51.781Z,44
2016-02-16T07:18:51.862Z,44
2016-02-16T07:19:51.896Z,48
2016-02-16T07:20:51.960Z,48
2016-02-16T07:21:51.995Z,48
2016-02-16T07:22:52.044Z,52
2016-02-16T07:23:52.094Z,52
2016-02-16T07:24:52.143Z,52
2016-02-16T07:25:52.193Z,56
2016-02-16T07:26:52.243Z,60
2016-02-16T07:27:52.293Z,60
2016-02-16T07:28:52.373Z,56
2016-02-16T07:29:52.407Z,60
2016-02-16T07:30:52.473Z,64
2016-02-16T07:31:52.506Z,64
2016-02-16T07:32:52.572Z,68
2016-02-16T07:33:52.605Z,68
2016-02-16T07:34:52.670Z,68
2016-02-16T07:35:52.720Z,68
2016-02-16T07:36:52.785Z,68
2016-02-16T07:37:52.819Z,68
2016-02-16T07:38:52.884Z,72
2016-02-16T07:39:52.919Z,72
2016-02-16T07:40:52.983Z,76
2016-02-16T07:41:53.017Z,72
2016-02-16T07:42:53.066Z,72
2016-02-16T07:43:53.117Z,76
2016-02-16T07:44:53.182Z,72
2016-02-16T07:45:53.232Z,76
2016-02-16T07:46:53.280Z,76
2016-02-16T07:47:53.362Z,44
2016-02-16T07:48:53.365Z,80
2016-02-16T07:49:53.430Z,84
2016-02-16T07:50:53.479Z,88
2016-02-16T07:51:53.529Z,92
2016-02-16T07:52:53.594Z,96
2016-02-16T07:53:53.628Z,92
2016-02-16T07:54:53.693Z,92
2016-02-16T07:55:53.727Z,96
2016-02-16T07:56:53.792Z,100
2016-02-16T07:57:53.842Z,100
2016-02-16T07:58:53.892Z,104
2016-02-16T07:59:53.940Z,116
2016-02-16T08:00:54.022Z,152
2016-02-16T08:01:54.040Z,196
2016-02-16T08:02:54.089Z,220
2016-02-16T08:03:54.140Z,308
2016-02-16T08:04:54.189Z,924
2016-02-16T08:05:54.239Z,1924
2016-02-16T08:06:54.334Z,2852
2016-02-16T08:07:54.337Z,3304
2016-02-16T08:08:54.386Z,3248
2016-02-16T08:09:54.468Z,3112
2016-02-16T08:10:54.486Z,3020
2016-02-16T08:11:54.567Z,2852
2016-02-16T08:12:54.586Z,2680
2016-02-16T08:13:54.636Z,2524
2016-02-16T08:14:54.685Z,2400
2016-02-16T08:15:54.765Z,2252
2016-02-16T08:16:54.768Z,2104
2016-02-16T08:17:54.864Z,1976
2016-02-16T08:18:54.883Z,1816
2016-02-16T08:19:54.807Z,1660
2016-02-16T08:20:54.982Z,1488
2016-02-16T08:21:55.062Z,1196
2016-02-16T08:22:55.081Z,852
2016-02-16T08:23:55.146Z,652
2016-02-16T08:24:55.180Z,564
2016-02-16T08:25:55.260Z,484
2016-02-16T08:26:55.263Z,376
2016-02-16T08:27:55.329Z,332
2016-02-16T08:28:55.394Z,308
2016-02-16T08:29:55.412Z,296
2016-02-16T08:30:55.493Z,264
2016-02-16T08:31:55.526Z,236
2016-02-16T08:32:55.592Z,204
2016-02-16T08:33:55.626Z,184
2016-02-16T08:34:55.675Z,172
2016-02-16T08:35:55.725Z,160
2016-02-16T08:36:55.790Z,156
2016-02-16T08:37:55.825Z,152
2016-02-16T08:38:55.889Z,148
2016-02-16T08:39:55.908Z,144
2016-02-16T08:40:55.973Z,140
2016-02-16T08:41:56.007Z,136
2016-02-16T08:42:56.056Z,132
2016-02-16T08:43:56.106Z,132
2016-02-16T08:44:56.171Z,132
2016-02-16T08:45:56.206Z,132
2016-02-16T08:46:56.239Z,132
2016-02-16T08:47:56.320Z,136
2016-02-16T08:48:56.339Z,136
2016-02-16T08:49:56.404Z,136
2016-02-16T08:50:56.484Z,128
2016-02-16T08:51:56.502Z,124
2016-02-16T08:52:56.537Z,124
2016-02-16T08:53:56.618Z,120
2016-02-16T08:54:56.635Z,120
2016-02-16T08:55:56.685Z,120
2016-02-16T08:56:56.735Z,120
2016-02-16T08:57:56.784Z,120
2016-02-16T08:58:56.835Z,124
2016-02-16T08:59:57.415Z,124
2016-02-16T09:00:56.902Z,124
2016-02-16T09:01:56.998Z,124
2016-02-16T09:02:57.017Z,124
2016-02-16T09:03:57.066Z,128
2016-02-16T09:04:57.115Z,136
2016-02-16T09:05:57.165Z,152
2016-02-16T09:06:57.215Z,204
2016-02-16T09:07:57.264Z,144
2016-02-16T09:08:57.314Z,228
2016-02-16T09:09:57.364Z,248
2016-02-16T09:10:57.382Z,272
2016-02-16T09:11:57.447Z,292
2016-02-16T09:12:57.497Z,304
2016-02-16T09:13:57.547Z,312
2016-02-16T09:14:57.611Z,312
2016-02-16T09:15:57.630Z,308
2016-02-16T09:16:57.741Z,304
2016-02-16T09:17:57.744Z,292
2016-02-16T09:18:57.778Z,284
2016-02-16T09:19:57.827Z,280
2016-02-16T09:20:57.878Z,284
2016-02-16T09:21:57.927Z,404
2016-02-16T09:22:57.977Z,428
2016-02-16T09:23:58.027Z,428
2016-02-16T09:24:58.201Z,436
2016-02-16T09:25:58.126Z,440
2016-02-16T09:26:58.175Z,448
2016-02-16T09:27:58.224Z,456
2016-02-16T09:28:58.274Z,468
2016-02-16T09:29:58.590Z,484
2016-02-16T09:30:58.357Z,496
2016-02-16T09:31:58.407Z,484
2016-02-16T09:32:58.488Z,500
2016-02-16T09:33:58.741Z,524
2016-02-16T09:34:58.556Z,528
2016-02-16T09:35:58.621Z,524
2016-02-16T09:36:58.687Z,524
2016-02-16T09:37:58.721Z,532
2016-02-16T09:38:58.754Z,532
2016-02-16T09:39:58.835Z,540
2016-02-16T09:40:58.853Z,548
2016-02-16T09:41:58.903Z,552
2016-02-16T09:42:58.234Z,552
2016-02-16T09:43:59.018Z,264
2016-02-16T09:44:59.067Z,272
2016-02-16T09:45:59.117Z,268
2016-02-16T09:46:59.166Z,276
2016-02-16T09:47:59.247Z,280
2016-02-16T09:48:59.280Z,276
2016-02-16T09:49:59.347Z,276
2016-02-16T09:50:59.365Z,280
2016-02-16T09:51:59.430Z,280
2016-02-16T09:52:59.449Z,284
2016-02-16T09:53:59.529Z,280
2016-02-16T09:54:59.547Z,284
2016-02-16T09:55:59.627Z,288
2016-02-16T09:56:59.677Z,288
2016-02-16T09:57:59.712Z,280
2016-02-16T09:58:59.761Z,280
2016-02-16T09:59:59.811Z,280
2016-02-16T10:00:59.845Z,284
2016-02-16T10:01:59.910Z,288
2016-02-16T10:02:59.787Z,288
2016-02-16T10:04:00.009Z,280
2016-02-16T10:05:00.090Z,276
2016-02-16T10:06:00.140Z,276
2016-02-16T10:07:00.173Z,304
2016-02-16T10:08:00.192Z,292
2016-02-16T10:09:00.272Z,296
2016-02-16T10:10:00.306Z,292
2016-02-16T10:11:00.356Z,288
2016-02-16T10:12:00.405Z,296
2016-02-16T10:13:00.456Z,296
2016-02-16T10:14:00.521Z,312
2016-02-16T10:15:00.554Z,304
2016-02-16T10:16:00.604Z,84
2016-02-16T10:17:00.653Z,220
2016-02-16T10:18:00.781Z,304
2016-02-16T10:19:00.737Z,300
2016-02-16T10:20:00.818Z,300
2016-02-16T10:21:00.867Z,296
2016-02-16T10:22:00.948Z,264
2016-02-16T10:23:00.950Z,272
2016-02-16T10:24:01.000Z,272
2016-02-16T10:25:01.049Z,272
2016-02-16T10:26:01.099Z,272
2016-02-16T10:27:01.149Z,268
2016-02-16T10:28:01.199Z,264
2016-02-16T10:29:01.264Z,264
2016-02-16T10:30:01.298Z,260
2016-02-16T10:31:01.347Z,264
2016-02-16T10:32:01.412Z,260
2016-02-16T10:33:01.462Z,256
2016-02-16T10:34:01.495Z,256
2016-02-16T10:35:01.546Z,244
2016-02-16T10:36:01.455Z,244
2016-02-16T10:37:01.488Z,236
2016-02-16T10:38:01.740Z,224
2016-02-16T10:39:01.868Z,196
2016-02-16T10:40:01.840Z,188
2016-02-16T10:41:01.858Z,192
2016-02-16T10:42:01.923Z,196
2016-02-16T10:43:01.958Z,184
2016-02-16T10:44:02.007Z,176
2016-02-16T10:45:02.042Z,168
2016-02-16T10:46:02.122Z,160
2016-02-16T10:47:02.171Z,168
2016-02-16T10:48:02.190Z,164
2016-02-16T10:49:02.287Z,152
2016-02-16T10:50:02.305Z,148
2016-02-16T10:51:02.370Z,136
2016-02-16T10:52:02.403Z,136
2016-02-16T10:53:02.469Z,136
2016-02-16T10:54:02.502Z,136
2016-02-16T10:55:02.552Z,128
2016-02-16T10:56:02.634Z,124
2016-02-16T10:57:02.652Z,128
2016-02-16T10:58:02.702Z,132
2016-02-16T10:59:02.782Z,128
2016-02-16T11:00:02.800Z,124
2016-02-16T11:01:02.849Z,124
2016-02-16T11:02:02.916Z,120
2016-02-16T11:03:02.965Z,120
2016-02-16T11:04:02.999Z,116
2016-02-16T11:05:03.079Z,116
2016-02-16T11:06:03.098Z,116
2016-02-16T11:07:03.162Z,112
2016-02-16T11:08:03.229Z,112
2016-02-16T11:09:03.246Z,116
2016-02-16T11:10:03.327Z,116
2016-02-16T11:11:03.362Z,116
2016-02-16T11:12:03.426Z,116
2016-02-16T11:13:03.476Z,116
2016-02-16T11:14:03.509Z,112
2016-02-16T11:15:03.544Z,116
2016-02-16T11:16:03.608Z,116
2016-02-16T11:17:03.659Z,116
2016-02-16T11:18:04.084Z,116
2016-02-16T11:19:03.773Z,116
2016-02-16T11:20:03.808Z,112
2016-02-16T11:21:03.872Z,112
2016-02-16T11:22:03.922Z,116
2016-02-16T11:23:04.019Z,116
2016-02-16T11:24:04.037Z,112
2016-02-16T11:25:04.071Z,116
2016-02-16T11:26:04.511Z,112
2016-02-16T11:27:04.170Z,116
2016-02-16T11:28:04.240Z,108
2016-02-16T11:29:04.258Z,116
2016-02-16T11:30:04.307Z,116
2016-02-16T11:31:04.420Z,116
2016-02-16T11:32:04.423Z,116
2016-02-16T11:33:04.534Z,112
2016-02-16T11:34:04.521Z,112
2016-02-16T11:35:04.571Z,112
2016-02-16T11:36:04.651Z,112
2016-02-16T11:37:04.686Z,112
2016-02-16T11:38:04.735Z,112
2016-02-16T11:39:04.817Z,112
2016-02-16T11:40:04.820Z,108
2016-02-16T11:41:04.868Z,112
2016-02-16T11:42:04.934Z,112
2016-02-16T11:43:05.014Z,112
2016-02-16T11:44:05.080Z,108
2016-02-16T11:45:05.083Z,108
2016-02-16T11:46:05.148Z,108
2016-02-16T11:47:04.447Z,108
2016-02-16T11:48:05.231Z,108
2016-02-16T11:49:05.311Z,104
2016-02-16T11:50:05.377Z,104
2016-02-16T11:51:05.380Z,104
2016-02-16T11:52:05.477Z,100
2016-02-16T11:53:05.494Z,104
2016-02-16T11:54:05.560Z,104
2016-02-16T11:55:05.578Z,104
2016-02-16T11:56:05.674Z,100
2016-02-16T11:57:05.724Z,104
2016-02-16T11:58:05.758Z,100
2016-02-16T11:59:05.792Z,100
2016-02-16T12:00:05.826Z,100
2016-02-16T12:01:05.907Z,100
2016-02-16T12:02:05.940Z,104
2016-02-16T12:03:05.991Z,100
2016-02-16T12:04:06.055Z,100
2016-02-16T12:05:06.006Z,100
2016-02-16T12:06:06.159Z,100
2016-02-16T12:07:06.210Z,100
2016-02-16T12:08:06.259Z,96
2016-02-16T12:09:06.309Z,100
2016-02-16T12:10:06.890Z,100
2016-02-16T12:11:06.424Z,96
2016-02-16T12:12:06.457Z,96
2016-02-16T12:13:06.523Z,96
2016-02-16T12:14:06.541Z,100
2016-02-16T12:15:06.623Z,96
2016-02-16T12:16:06.671Z,96
2016-02-16T12:17:06.721Z,96
2016-02-16T12:18:06.740Z,96
2016-02-16T12:19:06.851Z,96
2016-02-16T12:20:06.901Z,92
2016-02-16T12:21:06.903Z,92
2016-02-16T12:22:06.984Z,92
2016-02-16T12:23:07.004Z,92
2016-02-16T12:24:07.084Z,92
2016-02-16T12:25:07.103Z,88
2016-02-16T12:26:07.167Z,92
2016-02-16T12:27:07.216Z,88
2016-02-16T12:28:07.283Z,88
2016-02-16T12:29:07.331Z,88
2016-02-16T12:30:07.381Z,88
2016-02-16T12:31:07.416Z,88
2016-02-16T12:32:07.480Z,88
2016-02-16T12:33:07.530Z,88
2016-02-16T12:34:07.580Z,84
2016-02-16T12:35:07.629Z,84
2016-02-16T12:36:07.680Z,84
2016-02-16T12:37:07.744Z,84
2016-02-16T12:38:07.793Z,80
2016-02-16T12:39:07.827Z,84
2016-02-16T12:40:07.892Z,84
2016-02-16T12:41:07.926Z,80
2016-02-16T12:42:07.977Z,80
2016-02-16T12:43:08.026Z,76
2016-02-16T12:44:08.106Z,76
2016-02-16T12:45:08.110Z,76
2016-02-16T12:46:08.190Z,84
2016-02-16T12:47:08.223Z,80
2016-02-16T12:48:08.273Z,80
2016-02-16T12:49:08.323Z,92
2016-02-16T12:50:08.356Z,92
2016-02-16T12:51:08.438Z,88
2016-02-16T12:52:08.472Z,88
2016-02-16T12:53:08.537Z,68
2016-02-16T12:54:08.570Z,72
2016-02-16T12:55:08.667Z,72
2016-02-16T12:56:08.654Z,72
2016-02-16T12:57:08.766Z,68
2016-02-16T12:58:08.785Z,68
2016-02-16T12:59:08.834Z,64
2016-02-16T13:00:08.883Z,68
2016-02-16T13:01:08.949Z,68
2016-02-16T13:02:08.999Z,60
2016-02-16T13:03:09.047Z,64
2016-02-16T13:04:09.083Z,72
2016-02-16T13:05:09.163Z,68
2016-02-16T13:06:09.181Z,72
2016-02-16T13:07:09.246Z,68
2016-02-16T13:08:09.296Z,68
2016-02-16T13:09:09.345Z,68
2016-02-16T13:10:09.379Z,56
2016-02-16T13:11:09.429Z,56
2016-02-16T13:12:09.478Z,52
2016-02-16T13:13:09.560Z,56
2016-02-16T13:14:09.609Z,52
2016-02-16T13:15:09.643Z,52
2016-02-16T13:16:09.707Z,52
2016-02-16T13:17:09.726Z,52
2016-02-16T13:18:09.776Z,52
2016-02-16T13:19:09.825Z,52
2016-02-16T13:20:09.875Z,48
2016-02-16T13:21:09.925Z,48
2016-02-16T13:22:09.974Z,48
2016-02-16T13:23:10.023Z,52
2016-02-16T13:24:10.073Z,52
2016-02-16T13:25:10.122Z,48
2016-02-16T13:26:10.267Z,44
2016-02-16T13:27:10.222Z,44
2016-02-16T13:28:10.272Z,44
2016-02-16T13:29:10.368Z,48
2016-02-16T13:30:10.434Z,44
2016-02-16T13:31:10.436Z,44
2016-02-16T13:32:10.486Z,44
2016-02-16T13:33:10.535Z,48
2016-02-16T13:34:10.586Z,44
2016-02-16T13:35:10.634Z,40
2016-02-16T13:36:10.699Z,40
2016-02-16T13:37:10.741Z,40
2016-02-16T13:38:10.775Z,56
2016-02-16T13:39:10.794Z,48
2016-02-16T13:40:10.829Z,48
2016-02-16T13:41:10.847Z,44
2016-02-16T13:42:10.888Z,48
2016-02-16T13:43:10.947Z,48
2016-02-16T13:44:11.007Z,44
2016-02-16T13:45:11.067Z,44
2016-02-16T13:46:11.096Z,48
2016-02-16T13:47:11.142Z,48
2016-02-16T13:48:11.205Z,44
2016-02-16T13:49:11.253Z,44
2016-02-16T13:50:11.270Z,44
2016-02-16T13:51:11.332Z,44
2016-02-16T13:52:11.381Z,44
2016-02-16T13:53:11.445Z,44
2016-02-16T13:54:11.479Z,48
2016-02-16T13:55:11.512Z,48
2016-02-16T13:56:11.575Z,48
2016-02-16T13:57:11.625Z,48
2016-02-16T13:58:11.518Z,44
2016-02-16T13:59:11.754Z,44
2016-02-16T14:00:11.772Z,44
2016-02-16T14:01:11.806Z,44
2016-02-16T14:02:11.872Z,48
2016-02-16T14:03:11.936Z,48
2016-02-16T14:04:11.970Z,44
2016-02-16T14:05:12.020Z,48
2016-02-16T14:06:12.070Z,48
2016-02-16T14:07:12.135Z,48
2016-02-16T14:08:12.200Z,48
2016-02-16T14:09:12.233Z,44
2016-02-16T14:10:12.135Z,44
2016-02-16T14:11:12.212Z,44
2016-02-16T14:12:12.364Z,40
2016-02-16T14:13:12.497Z,40
2016-02-16T14:14:12.546Z,40
2016-02-16T14:15:12.534Z,40
2016-02-16T14:16:12.568Z,40
2016-02-16T14:17:12.633Z,52
2016-02-16T14:18:12.682Z,52
2016-02-16T14:19:12.717Z,52
2016-02-16T14:20:12.798Z,52
2016-02-16T14:21:12.879Z,52